Hughsonville, New York
Current Conditions -  °F | °C
As of 6:53 PM on Saturday 22 Nov 2014 (Local Time) from KPOU Reporting Station
Overcast Overcast  
Wind Chill: 39°   Ceiling: 3900
Heat Index: 43°   Visibility: 10mi
Dew Point: 14°   Wind: 7mph
Humidity: 31%   Direction: 210°SSW
Pressure: 30.19"   Gusts: NA
Location:  41.58°N, 73.93°W
Report Text: KPOU 222353Z 21006KT 10SM BKN039 OVC055 06/M10 A3019 RMK AO2 SLP223 T00611100 10061 20050 56008
Loading
Personal Weather Stations






























Interactive Weather Map New forecast layout! Learn more

10-Day Weather Forecast

Advertisements
Track Severe Weather on mobile